sensor_id;sensor_type;location;lat;lon;timestamp;pressure;altitude;pressure_sealevel;temperature;humidity
76637;BME280;65532;52.124;5.480;2023-02-03T00:01:44;102420.28;;;8.14;63.95
76637;BME280;65532;52.124;5.480;2023-02-03T00:04:10;102426.03;;;8.10;64.17
76637;BME280;65532;52.124;5.480;2023-02-03T00:06:37;102436.66;;;8.12;64.60
76637;BME280;65532;52.124;5.480;2023-02-03T00:09:03;102434.97;;;8.11;63.95
76637;BME280;65532;52.124;5.480;2023-02-03T00:11:30;102440.19;;;8.13;64.06
76637;BME280;65532;52.124;5.480;2023-02-03T00:13:57;102442.88;;;8.13;64.19
76637;BME280;65532;52.124;5.480;2023-02-03T00:16:23;102440.56;;;8.09;63.98
76637;BME280;65532;52.124;5.480;2023-02-03T00:18:50;102439.53;;;8.10;63.52
76637;BME280;65532;52.124;5.480;2023-02-03T00:21:16;102442.88;;;8.13;64.25
76637;BME280;65532;52.124;5.480;2023-02-03T00:23:43;102444.94;;;8.10;64.46
76637;BME280;65532;52.124;5.480;2023-02-03T00:26:13;102450.31;;;8.10;64.33
76637;BME280;65532;52.124;5.480;2023-02-03T00:28:41;102445.94;;;8.09;64.52
76637;BME280;65532;52.124;5.480;2023-02-03T00:31:16;102462.13;;;8.09;64.13
76637;BME280;65532;52.124;5.480;2023-02-03T00:33:44;102464.81;;;8.09;64.90
76637;BME280;65532;52.124;5.480;2023-02-03T00:36:11;102456.91;;;8.08;65.28
76637;BME280;65532;52.124;5.480;2023-02-03T00:38:38;102457.75;;;8.08;65.00
76637;BME280;65532;52.124;5.480;2023-02-03T00:41:05;102462.31;;;8.08;64.89
76637;BME280;65532;52.124;5.480;2023-02-03T00:43:32;102459.78;;;8.06;65.72
76637;BME280;65532;52.124;5.480;2023-02-03T00:45:59;102464.34;;;8.06;65.38
76637;BME280;65532;52.124;5.480;2023-02-03T00:48:25;102466.34;;;8.04;65.87
76637;BME280;65532;52.124;5.480;2023-02-03T00:50:52;102459.44;;;8.01;65.41
76637;BME280;65532;52.124;5.480;2023-02-03T00:53:18;102449.31;;;8.03;66.02
76637;BME280;65532;52.124;5.480;2023-02-03T00:55:44;102460.81;;;8.05;66.68
76637;BME280;65532;52.124;5.480;2023-02-03T00:58:11;102450.00;;;8.05;67.23
76637;BME280;65532;52.124;5.480;2023-02-03T01:00:37;102441.94;;;8.05;67.57
76637;BME280;65532;52.124;5.480;2023-02-03T01:03:04;102450.69;;;8.07;68.35
76637;BME280;65532;52.124;5.480;2023-02-03T01:05:31;102426.41;;;8.07;68.76
76637;BME280;65532;52.124;5.480;2023-02-03T01:07:59;102436.19;;;8.08;69.38
76637;BME280;65532;52.124;5.480;2023-02-03T01:10:26;102429.59;;;8.11;69.08
76637;BME280;65532;52.124;5.480;2023-02-03T01:12:53;102421.00;;;8.07;69.62
76637;BME280;65532;52.124;5.480;2023-02-03T01:15:20;102434.50;;;8.07;69.48
76637;BME280;65532;52.124;5.480;2023-02-03T01:17:46;102426.41;;;8.07;70.15
76637;BME280;65532;52.124;5.480;2023-02-03T01:20:13;102446.78;;;8.10;71.29
76637;BME280;65532;52.124;5.480;2023-02-03T01:22:41;102440.84;;;8.15;72.59
76637;BME280;65532;52.124;5.480;2023-02-03T01:25:08;102434.44;;;8.16;73.24
76637;BME280;65532;52.124;5.480;2023-02-03T01:27:34;102433.78;;;8.14;73.58
76637;BME280;65532;52.124;5.480;2023-02-03T01:30:01;102415.06;;;8.12;73.79
76637;BME280;65532;52.124;5.480;2023-02-03T01:32:27;102411.53;;;8.11;72.95
76637;BME280;65532;52.124;5.480;2023-02-03T01:34:55;102405.13;;;8.13;74.33
76637;BME280;65532;52.124;5.480;2023-02-03T01:37:21;102387.25;;;8.11;75.08
76637;BME280;65532;52.124;5.480;2023-02-03T01:39:48;102393.69;;;8.10;75.14
76637;BME280;65532;52.124;5.480;2023-02-03T01:42:15;102388.28;;;8.10;74.78
76637;BME280;65532;52.124;5.480;2023-02-03T01:44:45;102385.41;;;8.12;75.55
76637;BME280;65532;52.124;5.480;2023-02-03T01:47:14;102386.25;;;8.13;75.38
76637;BME280;65532;52.124;5.480;2023-02-03T01:49:46;102392.28;;;8.15;76.63
76637;BME280;65532;52.124;5.480;2023-02-03T01:52:14;102388.59;;;8.16;77.14
76637;BME280;65532;52.124;5.480;2023-02-03T01:54:43;102407.66;;;8.14;76.55
76637;BME280;65532;52.124;5.480;2023-02-03T01:57:17;102390.25;;;8.17;77.34
76637;BME280;65532;52.124;5.480;2023-02-03T01:59:45;102375.94;;;8.16;77.67
76637;BME280;65532;52.124;5.480;2023-02-03T02:02:12;102372.03;;;8.19;78.28
76637;BME280;65532;52.124;5.480;2023-02-03T02:04:52;102366.63;;;8.19;78.97
76637;BME280;65532;52.124;5.480;2023-02-03T02:07:22;102366.31;;;8.22;79.75
76637;BME280;65532;52.124;5.480;2023-02-03T02:09:49;102358.03;;;8.23;79.95
76637;BME280;65532;52.124;5.480;2023-02-03T02:12:15;102361.75;;;8.22;81.04
76637;BME280;65532;52.124;5.480;2023-02-03T02:14:43;102370.31;;;8.26;81.56
76637;BME280;65532;52.124;5.480;2023-02-03T02:17:38;102371.81;;;8.28;81.75
76637;BME280;65532;52.124;5.480;2023-02-03T02:25:34;102373.31;;;8.31;82.58
76637;BME280;65532;52.124;5.480;2023-02-03T02:33:41;102381.41;;;8.31;82.69
76637;BME280;65532;52.124;5.480;2023-02-03T02:36:31;102381.78;;;8.28;81.83
76637;BME280;65532;52.124;5.480;2023-02-03T02:39:13;102376.38;;;8.28;82.40
76637;BME280;65532;52.124;5.480;2023-02-03T02:41:46;102376.19;;;8.29;82.04
76637;BME280;65532;52.124;5.480;2023-02-03T02:46:49;102366.91;;;8.32;82.45
76637;BME280;65532;52.124;5.480;2023-02-03T02:49:36;102368.94;;;8.30;82.84
76637;BME280;65532;52.124;5.480;2023-02-03T02:52:07;102366.06;;;8.31;82.86
76637;BME280;65532;52.124;5.480;2023-02-03T02:54:38;102353.13;;;8.27;81.54
76637;BME280;65532;52.124;5.480;2023-02-03T02:57:09;102345.19;;;8.25;82.74
76637;BME280;65532;52.124;5.480;2023-02-03T02:59:36;102347.72;;;8.27;82.75
76637;BME280;65532;52.124;5.480;2023-02-03T03:02:02;102351.06;;;8.29;82.76
76637;BME280;65532;52.124;5.480;2023-02-03T03:04:30;102353.94;;;8.27;82.98
76637;BME280;65532;52.124;5.480;2023-02-03T03:07:07;102340.94;;;8.31;83.02
76637;BME280;65532;52.124;5.480;2023-02-03T03:12:09;102342.63;;;8.32;82.83
76637;BME280;65532;52.124;5.480;2023-02-03T03:14:43;102351.56;;;8.32;82.77
76637;BME280;65532;52.124;5.480;2023-02-03T03:17:16;102354.09;;;8.34;83.10
76637;BME280;65532;52.124;5.480;2023-02-03T03:19:51;102354.44;;;8.31;82.85
76637;BME280;65532;52.124;5.480;2023-02-03T03:22:21;102350.91;;;8.30;83.20
76637;BME280;65532;52.124;5.480;2023-02-03T03:25:11;102336.75;;;8.28;82.74
76637;BME280;65532;52.124;5.480;2023-02-03T03:27:43;102338.25;;;8.31;82.77
76637;BME280;65532;52.124;5.480;2023-02-03T03:30:17;102340.28;;;8.29;82.99
76637;BME280;65532;52.124;5.480;2023-02-03T03:32:47;102342.78;;;8.30;82.93
76637;BME280;65532;52.124;5.480;2023-02-03T03:35:14;102356.94;;;8.32;82.98
76637;BME280;65532;52.124;5.480;2023-02-03T03:37:44;102349.03;;;8.31;82.98
76637;BME280;65532;52.124;5.480;2023-02-03T03:40:21;102357.78;;;8.33;83.62
76637;BME280;65532;52.124;5.480;2023-02-03T03:42:54;102354.09;;;8.34;82.93
76637;BME280;65532;52.124;5.480;2023-02-03T03:45:31;102359.50;;;8.34;83.09
76637;BME280;65532;52.124;5.480;2023-02-03T03:48:16;102365.72;;;8.34;83.17
76637;BME280;65532;52.124;5.480;2023-02-03T03:50:56;102365.41;;;8.37;83.14
76637;BME280;65532;52.124;5.480;2023-02-03T03:53:24;102367.91;;;8.39;83.48
76637;BME280;65532;52.124;5.480;2023-02-03T03:55:53;102375.81;;;8.40;83.09
76637;BME280;65532;52.124;5.480;2023-02-03T03:58:28;102375.00;;;8.40;83.21
76637;BME280;65532;52.124;5.480;2023-02-03T04:00:58;102381.03;;;8.42;83.91
76637;BME280;65532;52.124;5.480;2023-02-03T04:03:32;102377.97;;;8.45;83.85
76637;BME280;65532;52.124;5.480;2023-02-03T04:06:00;102369.88;;;8.45;83.51
76637;BME280;65532;52.124;5.480;2023-02-03T04:08:27;102374.25;;;8.46;83.88
76637;BME280;65532;52.124;5.480;2023-02-03T04:10:53;102364.31;;;8.47;83.98
76637;BME280;65532;52.124;5.480;2023-02-03T04:13:20;102353.16;;;8.50;84.71
76637;BME280;65532;52.124;5.480;2023-02-03T04:15:46;102360.06;;;8.52;84.09
76637;BME280;65532;52.124;5.480;2023-02-03T04:18:14;102363.59;;;8.53;84.69
76637;BME280;65532;52.124;5.480;2023-02-03T04:20:41;102374.22;;;8.54;84.76
76637;BME280;65532;52.124;5.480;2023-02-03T04:23:08;102377.75;;;8.55;84.29
76637;BME280;65532;52.124;5.480;2023-02-03T04:25:35;102374.22;;;8.54;85.38
76637;BME280;65532;52.124;5.480;2023-02-03T04:28:01;102381.28;;;8.55;85.00
76637;BME280;65532;52.124;5.480;2023-02-03T04:30:28;102363.72;;;8.59;85.00
76637;BME280;65532;52.124;5.480;2023-02-03T04:32:55;102360.81;;;8.61;85.55
76637;BME280;65532;52.124;5.480;2023-02-03T04:35:21;102372.00;;;8.58;85.49
76637;BME280;65532;52.124;5.480;2023-02-03T04:37:48;102364.56;;;8.60;85.74
76637;BME280;65532;52.124;5.480;2023-02-03T04:40:14;102364.72;;;8.58;85.79
76637;BME280;65532;52.124;5.480;2023-02-03T04:42:41;102362.03;;;8.58;85.72
76637;BME280;65532;52.124;5.480;2023-02-03T04:45:09;102368.94;;;8.61;86.03
76637;BME280;65532;52.124;5.480;2023-02-03T04:47:37;102365.03;;;8.63;86.06
76637;BME280;65532;52.124;5.480;2023-02-03T04:50:04;102374.97;;;8.63;85.81
76637;BME280;65532;52.124;5.480;2023-02-03T04:52:31;102366.22;;;8.61;85.53
76637;BME280;65532;52.124;5.480;2023-02-03T04:54:57;102355.44;;;8.61;85.29
76637;BME280;65532;52.124;5.480;2023-02-03T04:57:24;102350.88;;;8.61;85.50
76637;BME280;65532;52.124;5.480;2023-02-03T04:59:50;102358.97;;;8.61;85.78
76637;BME280;65532;52.124;5.480;2023-02-03T05:02:17;102350.88;;;8.61;85.99
76637;BME280;65532;52.124;5.480;2023-02-03T05:04:43;102343.41;;;8.63;86.06
76637;BME280;65532;52.124;5.480;2023-02-03T05:07:10;102352.53;;;8.62;85.92
76637;BME280;65532;52.124;5.480;2023-02-03T05:09:36;102353.19;;;8.64;86.14
76637;BME280;65532;52.124;5.480;2023-02-03T05:12:03;102348.44;;;8.66;86.23
76637;BME280;65532;52.124;5.480;2023-02-03T05:14:29;102351.84;;;8.68;86.30
76637;BME280;65532;52.124;5.480;2023-02-03T05:16:55;102355.19;;;8.70;86.53
76637;BME280;65532;52.124;5.480;2023-02-03T05:19:22;102359.84;;;8.77;86.26
76637;BME280;65532;52.124;5.480;2023-02-03T05:21:48;102371.31;;;8.79;86.81
76637;BME280;65532;52.124;5.480;2023-02-03T05:24:15;102369.44;;;8.79;87.26
76637;BME280;65532;52.124;5.480;2023-02-03T05:26:42;102361.34;;;8.79;87.23
76637;BME280;65532;52.124;5.480;2023-02-03T05:29:08;102354.94;;;8.80;87.30
76637;BME280;65532;52.124;5.480;2023-02-03T05:31:36;102353.72;;;8.83;87.06
76637;BME280;65532;52.124;5.480;2023-02-03T05:34:03;102354.56;;;8.83;87.09
76637;BME280;65532;52.124;5.480;2023-02-03T05:36:30;102360.81;;;8.84;87.32
76637;BME280;65532;52.124;5.480;2023-02-03T05:38:56;102360.47;;;8.87;87.64
76637;BME280;65532;52.124;5.480;2023-02-03T05:41:23;102354.22;;;8.86;87.75
76637;BME280;65532;52.124;5.480;2023-02-03T05:44:23;102360.47;;;8.87;87.71
76637;BME280;65532;52.124;5.480;2023-02-03T05:46:54;102368.56;;;8.87;87.87
76637;BME280;65532;52.124;5.480;2023-02-03T05:49:22;102364.84;;;8.88;87.60
76637;BME280;65532;52.124;5.480;2023-02-03T05:51:53;102356.72;;;8.88;87.98
76637;BME280;65532;52.124;5.480;2023-02-03T05:54:20;102356.72;;;8.88;87.44
76637;BME280;65532;52.124;5.480;2023-02-03T05:56:46;102360.09;;;8.90;87.18
76637;BME280;65532;52.124;5.480;2023-02-03T05:59:13;102351.97;;;8.90;87.37
76637;BME280;65532;52.124;5.480;2023-02-03T06:01:39;102365.13;;;8.93;87.44
76637;BME280;65532;52.124;5.480;2023-02-03T06:04:06;102354.50;;;8.91;87.32
76637;BME280;65532;52.124;5.480;2023-02-03T06:06:32;102353.28;;;8.94;87.76
76637;BME280;65532;52.124;5.480;2023-02-03T06:09:00;102359.06;;;8.91;87.32
76637;BME280;65532;52.124;5.480;2023-02-03T06:11:27;102364.66;;;8.89;87.60
76637;BME280;65532;52.124;5.480;2023-02-03T06:13:55;102370.06;;;8.89;87.10
76637;BME280;65532;52.124;5.480;2023-02-03T06:16:24;102349.66;;;8.87;87.23
76637;BME280;65532;52.124;5.480;2023-02-03T06:18:52;102362.13;;;8.88;87.59
76637;BME280;65532;52.124;5.480;2023-02-03T06:21:20;102362.78;;;8.90;87.20
76637;BME280;65532;52.124;5.480;2023-02-03T06:23:47;102362.13;;;8.88;87.73
76637;BME280;65532;52.124;5.480;2023-02-03T06:26:14;102353.84;;;8.89;87.44
76637;BME280;65532;52.124;5.480;2023-02-03T06:28:40;102367.53;;;8.88;87.22
76637;BME280;65532;52.124;5.480;2023-02-03T06:31:07;102374.63;;;8.89;87.16
76637;BME280;65532;52.124;5.480;2023-02-03T06:33:33;102372.94;;;8.88;87.49
76637;BME280;65532;52.124;5.480;2023-02-03T06:36:00;102368.56;;;8.87;87.01
76637;BME280;65532;52.124;5.480;2023-02-03T06:38:26;102367.53;;;8.88;87.49
76637;BME280;65532;52.124;5.480;2023-02-03T06:40:53;102373.13;;;8.86;86.79
76637;BME280;65532;52.124;5.480;2023-02-03T06:43:19;102368.06;;;8.83;87.26
76637;BME280;65532;52.124;5.480;2023-02-03T06:45:46;102364.19;;;8.86;87.21
76637;BME280;65532;52.124;5.480;2023-02-03T06:48:13;102368.94;;;8.84;86.86
76637;BME280;65532;52.124;5.480;2023-02-03T06:50:40;102377.88;;;8.84;87.12
76637;BME280;65532;52.124;5.480;2023-02-03T06:53:07;102371.97;;;8.81;86.60
76637;BME280;65532;52.124;5.480;2023-02-03T06:55:33;102367.78;;;8.78;86.42
76637;BME280;65532;52.124;5.480;2023-02-03T06:58:00;102381.28;;;8.78;86.14
76637;BME280;65532;52.124;5.480;2023-02-03T07:00:26;102383.13;;;8.78;86.34
76637;BME280;65532;52.124;5.480;2023-02-03T07:02:55;102398.50;;;8.77;86.18
76637;BME280;65532;52.124;5.480;2023-02-03T07:05:22;102399.81;;;8.81;86.97
76637;BME280;65532;52.124;5.480;2023-02-03T07:07:50;102398.97;;;8.81;86.59
76637;BME280;65532;52.124;5.480;2023-02-03T07:10:17;102410.63;;;8.81;86.53
76637;BME280;65532;52.124;5.480;2023-02-03T07:12:43;102414.16;;;8.82;86.78
76637;BME280;65532;52.124;5.480;2023-02-03T07:15:11;102420.25;;;8.84;86.32
76637;BME280;65532;52.124;5.480;2023-02-03T07:17:38;102418.53;;;8.83;86.67
76637;BME280;65532;52.124;5.480;2023-02-03T07:20:04;102421.41;;;8.81;85.98
76637;BME280;65532;52.124;5.480;2023-02-03T07:22:31;102411.81;;;8.79;85.84
76637;BME280;65532;52.124;5.480;2023-02-03T07:24:57;102413.88;;;8.77;85.88
76637;BME280;65532;52.124;5.480;2023-02-03T07:27:24;102420.94;;;8.78;86.08
76637;BME280;65532;52.124;5.480;2023-02-03T07:29:50;102412.66;;;8.79;85.71
76637;BME280;65532;52.124;5.480;2023-02-03T07:32:17;102426.34;;;8.78;86.15
76637;BME280;65532;52.124;5.480;2023-02-03T07:34:43;102412.66;;;8.79;85.49
76637;BME280;65532;52.124;5.480;2023-02-03T07:37:09;102423.63;;;8.78;85.97
76637;BME280;65532;52.124;5.480;2023-02-03T07:39:36;102413.50;;;8.80;86.09
76637;BME280;65532;52.124;5.480;2023-02-03T07:42:02;102411.63;;;8.80;85.39
76637;BME280;65532;52.124;5.480;2023-02-03T07:44:34;102402.69;;;8.80;85.80
76637;BME280;65532;52.124;5.480;2023-02-03T07:47:00;102411.81;;;8.79;85.50
76637;BME280;65532;52.124;5.480;2023-02-03T07:49:27;102413.03;;;8.76;84.86
76637;BME280;65532;52.124;5.480;2023-02-03T07:51:53;102417.59;;;8.76;85.27
76637;BME280;65532;52.124;5.480;2023-02-03T07:54:21;102419.63;;;8.74;85.05
76637;BME280;65532;52.124;5.480;2023-02-03T07:56:48;102433.97;;;8.74;84.19
76637;BME280;65532;52.124;5.480;2023-02-03T07:59:15;102427.19;;;8.78;84.60
76637;BME280;65532;52.124;5.480;2023-02-03T08:01:42;102425.31;;;8.79;84.62
76637;BME280;65532;52.124;5.480;2023-02-03T08:04:08;102428.19;;;8.77;84.27
76637;BME280;65532;52.124;5.480;2023-02-03T08:06:37;102430.72;;;8.79;83.86
76637;BME280;65532;52.124;5.480;2023-02-03T08:09:03;102432.41;;;8.80;84.26
76637;BME280;65532;52.124;5.480;2023-02-03T08:11:30;102447.56;;;8.81;83.76
76637;BME280;65532;52.124;5.480;2023-02-03T08:13:57;102448.25;;;8.83;84.44
76637;BME280;65532;52.124;5.480;2023-02-03T08:16:24;102447.25;;;8.84;83.91
76637;BME280;65532;52.124;5.480;2023-02-03T08:18:50;102449.56;;;8.87;83.95
76637;BME280;65532;52.124;5.480;2023-02-03T08:21:17;102462.06;;;8.88;83.85
76637;BME280;65532;52.124;5.480;2023-02-03T08:23:43;102460.00;;;8.90;83.76
76637;BME280;65532;52.124;5.480;2023-02-03T08:26:09;102469.44;;;8.94;83.92
76637;BME280;65532;52.124;5.480;2023-02-03T08:28:36;102477.34;;;8.95;83.99
76637;BME280;65532;52.124;5.480;2023-02-03T08:31:10;102474.47;;;8.97;84.08
76637;BME280;65532;52.124;5.480;2023-02-03T08:33:37;102481.56;;;8.98;84.23
76637;BME280;65532;52.124;5.480;2023-02-03T08:36:04;102479.69;;;8.98;84.17
76637;BME280;65532;52.124;5.480;2023-02-03T08:38:31;102461.63;;;8.99;84.05
76637;BME280;65532;52.124;5.480;2023-02-03T08:40:58;102479.16;;;9.03;84.23
76637;BME280;65532;52.124;5.480;2023-02-03T08:43:24;102476.47;;;9.03;84.16
76637;BME280;65532;52.124;5.480;2023-02-03T08:45:51;102479.16;;;9.03;83.82
76637;BME280;65532;52.124;5.480;2023-02-03T08:48:17;102471.06;;;9.03;84.06
76637;BME280;65532;52.124;5.480;2023-02-03T08:50:44;102500.41;;;9.06;83.56
76637;BME280;65532;52.124;5.480;2023-02-03T08:53:17;102478.81;;;9.06;83.71
76637;BME280;65532;52.124;5.480;2023-02-03T08:55:43;102487.38;;;9.10;83.25
76637;BME280;65532;52.124;5.480;2023-02-03T08:58:10;102472.66;;;9.12;83.61
76637;BME280;65532;52.124;5.480;2023-02-03T09:00:36;102497.63;;;9.14;83.42
76637;BME280;65532;52.124;5.480;2023-02-03T09:03:03;102496.28;;;9.18;83.68
76637;BME280;65532;52.124;5.480;2023-02-03T09:05:31;102497.78;;;9.21;84.06
76637;BME280;65532;52.124;5.480;2023-02-03T09:07:57;102484.06;;;9.22;83.70
76637;BME280;65532;52.124;5.480;2023-02-03T09:10:24;102498.06;;;9.26;83.79
76637;BME280;65532;52.124;5.480;2023-02-03T09:12:51;102497.88;;;9.27;84.13
76637;BME280;65532;52.124;5.480;2023-02-03T09:15:17;102499.22;;;9.32;84.66
76637;BME280;65532;52.124;5.480;2023-02-03T09:17:44;102498.84;;;9.35;84.96
76637;BME280;65532;52.124;5.480;2023-02-03T09:20:11;102501.84;;;9.40;84.75
76637;BME280;65532;52.124;5.480;2023-02-03T09:22:40;102500.16;;;9.39;84.89
76637;BME280;65532;52.124;5.480;2023-02-03T09:25:06;102503.50;;;9.41;84.76
76637;BME280;65532;52.124;5.480;2023-02-03T09:27:33;102494.56;;;9.40;85.44
76637;BME280;65532;52.124;5.480;2023-02-03T09:29:59;102496.06;;;9.43;85.21
76637;BME280;65532;52.124;5.480;2023-02-03T09:32:26;102499.41;;;9.45;84.69
76637;BME280;65532;52.124;5.480;2023-02-03T09:34:52;102506.81;;;9.51;84.77
76637;BME280;65532;52.124;5.480;2023-02-03T09:37:19;102508.50;;;9.52;85.12
76637;BME280;65532;52.124;5.480;2023-02-03T09:39:45;102500.94;;;9.47;85.08
76637;BME280;65532;52.124;5.480;2023-02-03T09:42:30;102485.56;;;9.48;85.66
76637;BME280;65532;52.124;5.480;2023-02-03T09:45:11;102507.84;;;9.50;85.19
76637;BME280;65532;52.124;5.480;2023-02-03T09:47:42;102509.50;;;9.51;85.69
76637;BME280;65532;52.124;5.480;2023-02-03T09:50:20;102521.34;;;9.50;85.51
76637;BME280;65532;52.124;5.480;2023-02-03T09:52:48;102524.72;;;9.52;85.30
76637;BME280;65532;52.124;5.480;2023-02-03T09:55:35;102524.06;;;9.50;85.42
76637;BME280;65532;52.124;5.480;2023-02-03T09:58:13;102517.81;;;9.49;85.43
76637;BME280;65532;52.124;5.480;2023-02-03T10:00:52;102532.16;;;9.50;85.59
76637;BME280;65532;52.124;5.480;2023-02-03T10:03:29;102524.06;;;9.50;85.95
76637;BME280;65532;52.124;5.480;2023-02-03T10:06:07;102531.78;;;9.53;85.99
76637;BME280;65532;52.124;5.480;2023-02-03T10:08:45;102538.22;;;9.52;85.80
76637;BME280;65532;52.124;5.480;2023-02-03T10:17:03;102537.13;;;9.61;85.68
76637;BME280;65532;52.124;5.480;2023-02-03T10:20:00;102537.81;;;9.63;86.33
76637;BME280;65532;52.124;5.480;2023-02-03T10:22:30;102536.78;;;9.64;85.95
76637;BME280;65532;52.124;5.480;2023-02-03T10:27:40;102547.03;;;9.69;86.06
76637;BME280;65532;52.124;5.480;2023-02-03T10:30:24;102556.81;;;9.70;86.18
76637;BME280;65532;52.124;5.480;2023-02-03T10:33:12;102550.22;;;9.72;86.41
76637;BME280;65532;52.124;5.480;2023-02-03T10:41:17;102565.22;;;9.75;86.26
76637;BME280;65532;52.124;5.480;2023-02-03T10:43:46;102564.00;;;9.77;86.22
76637;BME280;65532;52.124;5.480;2023-02-03T10:48:44;102575.31;;;9.81;86.30
76637;BME280;65532;52.124;5.480;2023-02-03T10:51:24;102574.13;;;9.83;86.48
76637;BME280;65532;52.124;5.480;2023-02-03T10:53:51;102571.41;;;9.83;86.58
76637;BME280;65532;52.124;5.480;2023-02-03T10:56:34;102567.69;;;9.84;86.46
76637;BME280;65532;52.124;5.480;2023-02-03T10:59:02;102566.47;;;9.87;86.64
76637;BME280;65532;52.124;5.480;2023-02-03T11:01:46;102569.00;;;9.88;87.26
76637;BME280;65532;52.124;5.480;2023-02-03T11:04:29;102552.75;;;9.88;87.28
76637;BME280;65532;52.124;5.480;2023-02-03T11:06:58;102569.16;;;9.87;86.86
76637;BME280;65532;52.124;5.480;2023-02-03T11:09:40;102580.19;;;9.85;86.85
76637;BME280;65532;52.124;5.480;2023-02-03T11:12:18;102591.00;;;9.85;86.84
76637;BME280;65532;52.124;5.480;2023-02-03T11:14:47;102579.53;;;9.83;86.94
76637;BME280;65532;52.124;5.480;2023-02-03T11:17:17;102588.66;;;9.82;86.88
76637;BME280;65532;52.124;5.480;2023-02-03T11:19:46;102587.00;;;9.81;86.46
76637;BME280;65532;52.124;5.480;2023-02-03T11:22:26;102587.84;;;9.82;86.62
76637;BME280;65532;52.124;5.480;2023-02-03T11:24:54;102581.41;;;9.83;86.55
76637;BME280;65532;52.124;5.480;2023-02-03T11:27:21;102584.28;;;9.81;86.84
76637;BME280;65532;52.124;5.480;2023-02-03T11:29:53;102575.84;;;9.76;86.16
76637;BME280;65532;52.124;5.480;2023-02-03T11:32:34;102577.91;;;9.74;86.13
76637;BME280;65532;52.124;5.480;2023-02-03T11:35:04;102577.91;;;9.74;85.60
76637;BME280;65532;52.124;5.480;2023-02-03T11:37:41;102583.97;;;9.76;85.57
76637;BME280;65532;52.124;5.480;2023-02-03T11:42:39;102587.84;;;9.82;85.64
76637;BME280;65532;52.124;5.480;2023-02-03T11:45:14;102591.00;;;9.85;86.26
76637;BME280;65532;52.124;5.480;2023-02-03T11:48:11;102584.94;;;9.83;85.90
76637;BME280;65532;52.124;5.480;2023-02-03T11:50:46;102572.81;;;9.79;86.39
76637;BME280;65532;52.124;5.480;2023-02-03T12:04:53;102569.41;;;9.77;84.96
76637;BME280;65532;52.124;5.480;2023-02-03T12:08:09;102570.44;;;9.76;84.95
76637;BME280;65532;52.124;5.480;2023-02-03T12:10:56;102584.81;;;9.77;85.38
76637;BME280;65532;52.124;5.480;2023-02-03T12:19:13;102596.69;;;9.53;79.45
76637;BME280;65532;52.124;5.480;2023-02-03T12:22:15;102607.53;;;9.45;78.68
76637;BME280;65532;52.124;5.480;2023-02-03T12:30:24;102610.69;;;9.34;78.99
76637;BME280;65532;52.124;5.480;2023-02-03T12:32:57;102629.28;;;9.28;79.19
76637;BME280;65532;52.124;5.480;2023-02-03T12:35:33;102628.50;;;9.20;77.63
76637;BME280;65532;52.124;5.480;2023-02-03T12:38:11;102636.66;;;9.12;76.12
76637;BME280;65532;52.124;5.480;2023-02-03T12:40:52;102639.22;;;9.05;73.95
76637;BME280;65532;52.124;5.480;2023-02-03T12:43:23;102639.06;;;8.98;72.69
76637;BME280;65532;52.124;5.480;2023-02-03T12:45:55;102643.16;;;8.94;70.56
76637;BME280;65532;52.124;5.480;2023-02-03T12:48:28;102643.03;;;8.88;73.29
76637;BME280;65532;52.124;5.480;2023-02-03T12:51:01;102655.69;;;8.87;72.06
76637;BME280;65532;52.124;5.480;2023-02-03T12:53:32;102659.22;;;8.88;69.07
76637;BME280;65532;52.124;5.480;2023-02-03T12:56:08;102670.03;;;8.88;67.45
76637;BME280;65532;52.124;5.480;2023-02-03T12:58:39;102667.50;;;8.86;65.95
76637;BME280;65532;52.124;5.480;2023-02-03T13:01:14;102673.75;;;8.87;66.47
76637;BME280;65532;52.124;5.480;2023-02-03T13:04:01;102672.56;;;8.89;68.23
76637;BME280;65532;52.124;5.480;2023-02-03T13:06:39;102660.56;;;8.92;69.68
76637;BME280;65532;52.124;5.480;2023-02-03T13:09:41;102669.31;;;8.94;69.25
76637;BME280;65532;52.124;5.480;2023-02-03T13:13:01;102677.06;;;8.97;67.45
76637;BME280;65532;52.124;5.480;2023-02-03T13:15:18;102668.63;;;9.00;71.69
76637;BME280;65532;52.124;5.480;2023-02-03T13:17:51;102682.44;;;9.05;71.65
76637;BME280;65532;52.124;5.480;2023-02-03T13:20:23;102680.41;;;9.07;73.10
76637;BME280;65532;52.124;5.480;2023-02-03T13:22:51;102678.38;;;9.09;72.97
76637;BME280;65532;52.124;5.480;2023-02-03T13:25:26;102669.25;;;9.10;74.56
76637;BME280;65532;52.124;5.480;2023-02-03T13:37:47;102689.19;;;9.09;80.36
76637;BME280;65532;52.124;5.480;2023-02-03T13:42:52;102683.41;;;9.12;82.23
76637;BME280;65532;52.124;5.480;2023-02-03T13:45:25;102678.00;;;9.12;82.43
76637;BME280;65532;52.124;5.480;2023-02-03T13:47:55;102669.91;;;9.12;82.84
76637;BME280;65532;52.124;5.480;2023-02-03T13:50:27;102675.31;;;9.12;84.74
76637;BME280;65532;52.124;5.480;2023-02-03T13:53:07;102672.59;;;9.12;85.53
76637;BME280;65532;52.124;5.480;2023-02-03T13:55:42;102671.28;;;9.08;85.64
76637;BME280;65532;52.124;5.480;2023-02-03T13:58:21;102675.00;;;9.07;86.55
76637;BME280;65532;52.124;5.480;2023-02-03T14:03:16;102665.41;;;9.05;85.48
76637;BME280;65532;52.124;5.480;2023-02-03T14:05:46;102674.16;;;9.07;86.07
76637;BME280;65532;52.124;5.480;2023-02-03T14:16:44;102692.53;;;9.11;86.80
76637;BME280;65532;52.124;5.480;2023-02-03T14:24:46;102700.34;;;9.06;87.17
76637;BME280;65532;52.124;5.480;2023-02-03T14:27:23;102705.09;;;9.04;86.94
76637;BME280;65532;52.124;5.480;2023-02-03T14:30:03;102720.63;;;9.02;87.44
76637;BME280;65532;52.124;5.480;2023-02-03T14:35:16;102724.34;;;9.01;86.98
76637;BME280;65532;52.124;5.480;2023-02-03T14:37:51;102731.75;;;8.99;87.51
76637;BME280;65532;52.124;5.480;2023-02-03T14:41:11;102729.41;;;8.96;88.00
76637;BME280;65532;52.124;5.480;2023-02-03T14:46:15;102734.31;;;8.92;88.14
76637;BME280;65532;52.124;5.480;2023-02-03T14:49:16;102737.88;;;8.93;87.93
76637;BME280;65532;52.124;5.480;2023-02-03T14:52:16;102739.91;;;8.91;88.05